KCNU/CNU METAR and TAF weather

Enter ICAO airport designator
Station Type Date Time Source
KCNU METAR 2019/10/18 05:52 UTC NOAA

KCNU 180552Z AUTO 16008KT 10SM CLR 12/08 A2987 RMK AO2 SLP109 T01220078 10156 20117 402220056 58003


Station Type Date Time Source
KCNU Decoded METAR 2019/10/18 05:52 UTC NOAA

CHANUTE JOHNSON AIRPORT, KS, United States (KCNU) 37-40N 95-29W 297M
Oct 18, 2019 - 01:52 AM EDT / 2019.10.18 0552 UTC
Wind: from the SSE (160 degrees) at 9 MPH (8 KT):0
Visibility: 10 mile(s):0
Sky conditions: clear
Temperature: 54.0 F (12.2 C)
Dew Point: 46.0 F (7.8 C)
Relative Humidity: 74%
Pressure (altimeter): 29.87 in. Hg (1011 hPa)
Pressure tendency: 0.01 inches (0.3 hPa) lower than three hours ago
ob: KCNU 180552Z AUTO 16008KT 10SM CLR 12/08 A2987 RMK AO2 SLP109 T01220078 10156 20117 402220056 58003
cycle: 6

Station Type Date Time Source
KCNU TAF 2019/10/18 06:22 UTC NOAA

TAF KCNU 180520Z 1806/1906 17009KT P6SM FEW250
FM180700 17009KT P6SM FEW250 WS020/20035KT
FM180800 17010KT P6SM FEW250
FM190200 16012KT P6SM SKC WS020/19040KT

Example: see airport list